Time;durP1;ratioP1;P1;durP2;ratioP2;P2;SDS_P1;SDS_P2;PMS_P1;PMS_P2;Temp;Humidity;BMP_temperature;BMP_pressure;BME280_temperature;BME280_humidity;BME280_pressure;Samples;Min_cycle;Max_cycle;Signal;HPM_P1;HPM_P2
2022/08/26 00:02:16;;;;;;;13.25;6.43;;;;;;;;;;2354092;57;21038;-80
2022/08/26 00:04:44;;;;;;;11.57;5.22;;;;;;;;;;2602051;53;21098;-80
2022/08/26 00:07:11;;;;;;;7.40;4.97;;;;;;;;;;2601496;52;21021;-81
2022/08/26 00:09:38;;;;;;;9.18;5.60;;;;;;;;;;2601876;53;21101;-80
2022/08/26 00:12:05;;;;;;;12.88;6.82;;;;;;;;;;2353923;57;21117;-80
2022/08/26 00:14:32;;;;;;;9.77;5.80;;;;;;;;;;2353141;57;21026;-80
2022/08/26 00:16:59;;;;;;;9.57;5.47;;;;;;;;;;2601772;52;21728;-80
2022/08/26 00:19:27;;;;;;;10.20;7.00;;;;;;;;;;2601721;53;21041;-80
2022/08/26 00:21:54;;;;;;;11.60;5.65;;;;;;;;;;2353272;57;21049;-81
2022/08/26 00:24:21;;;;;;;13.23;7.47;;;;;;;;;;2353385;57;21037;-81
2022/08/26 00:26:48;;;;;;;10.90;5.93;;;;;;;;;;2601822;52;21041;-80
2022/08/26 00:29:15;;;;;;;8.93;6.07;;;;;;;;;;2351745;57;21093;-81
2022/08/26 00:31:43;;;;;;;10.13;5.93;;;;;;;;;;2353127;57;21114;-81
2022/08/26 00:34:11;;;;;;;13.90;6.57;;;;;;;;;;2353655;57;21042;-80
2022/08/26 00:36:38;;;;;;;12.73;6.30;;;;;;;;;;2601723;52;21084;-80
2022/08/26 00:39:06;;;;;;;11.93;6.20;;;;;;;;;;2353483;57;21085;-80
2022/08/26 00:41:33;;;;;;;9.75;5.93;;;;;;;;;;2353811;57;21077;-80
2022/08/26 00:44:00;;;;;;;10.50;5.87;;;;;;;;;;2602588;53;21102;-81
2022/08/26 00:46:28;;;;;;;20.83;6.47;;;;;;;;;;2600804;52;21030;-80
2022/08/26 00:48:59;;;;;;;7.93;5.68;;;;;;;;;;2351967;57;21053;-80
2022/08/26 00:51:27;;;;;;;7.32;5.80;;;;;;;;;;2351327;57;21090;-80
2022/08/26 00:53:56;;;;;;;11.50;5.90;;;;;;;;;;2353412;57;21025;-81
2022/08/26 00:56:31;;;;;;;13.18;5.72;;;;;;;;;;2400468;52;68693;-77
2022/08/26 00:59:00;;;;;;;9.40;5.97;;;;;;;;;;2363337;57;21054;-78
2022/08/26 01:01:27;;;;;;;13.95;6.07;;;;;;;;;;2363299;57;21066;-77
2022/08/26 01:03:55;;;;;;;8.98;6.10;;;;;;;;;;2388701;56;22171;-78
2022/08/26 01:06:23;;;;;;;8.10;5.50;;;;;;;;;;2390083;56;21075;-78
2022/08/26 01:08:51;;;;;;;17.00;6.20;;;;;;;;;;2391224;56;21024;-78
2022/08/26 01:11:18;;;;;;;9.85;5.78;;;;;;;;;;2463014;52;21052;-77
2022/08/26 01:13:46;;;;;;;8.07;5.62;;;;;;;;;;2397693;52;21060;-77
2022/08/26 01:16:15;;;;;;;10.82;5.43;;;;;;;;;;2391261;52;21024;-78
2022/08/26 01:18:42;;;;;;;13.18;6.07;;;;;;;;;;2390707;56;21111;-77
2022/08/26 01:21:14;;;;;;;13.10;7.00;;;;;;;;;;2392141;52;21036;-78
2022/08/26 01:23:42;;;;;;;10.93;6.50;;;;;;;;;;2391133;56;21194;-78
2022/08/26 01:26:11;;;;;;;11.80;6.12;;;;;;;;;;2442982;52;21629;-77
2022/08/26 01:28:39;;;;;;;7.62;5.68;;;;;;;;;;2391044;56;21210;-77
2022/08/26 01:31:09;;;;;;;9.93;6.32;;;;;;;;;;2408452;52;21131;-77
2022/08/26 01:33:43;;;;;;;8.73;5.90;;;;;;;;;;2392150;52;21118;-78
2022/08/26 01:36:11;;;;;;;12.85;6.50;;;;;;;;;;2389523;56;21124;-78
2022/08/26 01:38:38;;;;;;;10.38;6.40;;;;;;;;;;2389795;54;21035;-78
2022/08/26 01:41:07;;;;;;;10.60;5.75;;;;;;;;;;2406449;52;21127;-77
2022/08/26 01:43:34;;;;;;;9.80;6.43;;;;;;;;;;2390769;56;21043;-77
2022/08/26 01:46:01;;;;;;;11.75;6.45;;;;;;;;;;2390396;56;21314;-78
2022/08/26 01:48:30;;;;;;;11.68;6.22;;;;;;;;;;2391090;56;21043;-77
2022/08/26 01:50:58;;;;;;;11.35;6.05;;;;;;;;;;2391545;56;21044;-78
2022/08/26 01:53:26;;;;;;;13.20;6.20;;;;;;;;;;2391396;56;21080;-78
2022/08/26 01:55:56;;;;;;;11.98;5.95;;;;;;;;;;2534145;52;21063;-78
2022/08/26 01:58:24;;;;;;;9.30;6.25;;;;;;;;;;2452352;52;21060;-78
2022/08/26 02:00:51;;;;;;;11.30;6.60;;;;;;;;;;2391742;56;21086;-77
2022/08/26 02:03:21;;;;;;;7.45;6.35;;;;;;;;;;2390860;56;21115;-78
2022/08/26 02:05:51;;;;;;;9.57;6.07;;;;;;;;;;2389208;56;21099;-77
2022/08/26 02:08:19;;;;;;;10.32;6.55;;;;;;;;;;2391712;56;21052;-77
2022/08/26 02:10:46;;;;;;;6.37;5.40;;;;;;;;;;2392072;56;21044;-78
2022/08/26 02:13:13;;;;;;;12.40;5.68;;;;;;;;;;2391502;56;21630;-77
2022/08/26 02:15:42;;;;;;;11.23;6.95;;;;;;;;;;2390771;56;21115;-79
2022/08/26 02:18:10;;;;;;;13.55;6.30;;;;;;;;;;2391896;56;21111;-77
2022/08/26 02:20:37;;;;;;;10.98;6.15;;;;;;;;;;2402752;52;21762;-78
2022/08/26 02:23:05;;;;;;;17.05;6.18;;;;;;;;;;2400079;52;21107;-78
2022/08/26 02:25:34;;;;;;;10.82;6.05;;;;;;;;;;2390478;56;21135;-77
2022/08/26 02:28:01;;;;;;;9.95;6.28;;;;;;;;;;2390456;56;21063;-78
2022/08/26 02:30:30;;;;;;;9.38;6.47;;;;;;;;;;2390707;56;21095;-78
2022/08/26 02:33:02;;;;;;;10.15;5.95;;;;;;;;;;2389828;53;21063;-77
2022/08/26 02:35:30;;;;;;;12.18;6.20;;;;;;;;;;2445057;52;21159;-77
2022/08/26 02:37:58;;;;;;;9.52;6.25;;;;;;;;;;2394109;52;21134;-77
2022/08/26 02:40:29;;;;;;;8.82;6.35;;;;;;;;;;2390941;56;21653;-78
2022/08/26 02:42:56;;;;;;;13.55;6.70;;;;;;;;;;2448974;52;21036;-78
2022/08/26 02:45:23;;;;;;;10.85;5.80;;;;;;;;;;2480824;52;21048;-80
2022/08/26 02:47:51;;;;;;;16.25;6.28;;;;;;;;;;2391101;56;21035;-79
2022/08/26 02:50:19;;;;;;;14.27;6.45;;;;;;;;;;2391132;56;21040;-78
2022/08/26 02:52:47;;;;;;;11.00;7.03;;;;;;;;;;2463916;52;21068;-77
2022/08/26 02:55:15;;;;;;;13.55;6.10;;;;;;;;;;2388926;56;21102;-77
2022/08/26 02:57:42;;;;;;;9.13;6.40;;;;;;;;;;2432208;52;21174;-78
2022/08/26 03:00:11;;;;;;;8.90;6.50;;;;;;;;;;2394716;52;21020;-77
2022/08/26 03:02:39;;;;;;;12.50;6.20;;;;;;;;;;2391027;56;21150;-77
2022/08/26 03:05:07;;;;;;;9.85;6.90;;;;;;;;;;2391321;56;21115;-77
2022/08/26 03:07:34;;;;;;;10.45;6.57;;;;;;;;;;2391050;56;21051;-77
2022/08/26 03:12:36;;;;;;;12.27;7.15;;;;;;;;;;2522391;53;27930;-77
2022/08/26 03:15:04;;;;;;;12.10;6.60;;;;;;;;;;2346962;57;21171;-77
2022/08/26 03:17:31;;;;;;;12.10;6.07;;;;;;;;;;2346909;57;21053;-77
2022/08/26 03:19:58;;;;;;;9.77;6.00;;;;;;;;;;2346713;57;21117;-77
2022/08/26 03:22:26;;;;;;;9.65;6.57;;;;;;;;;;2347661;57;21295;-78
2022/08/26 03:24:53;;;;;;;8.98;6.12;;;;;;;;;;2347629;57;21041;-78
2022/08/26 03:27:20;;;;;;;10.20;7.10;;;;;;;;;;2346264;57;21650;-77
2022/08/26 03:32:33;;;;;;;11.32;7.10;;;;;;;;;;2347425;53;21033;-77
2022/08/26 03:35:00;;;;;;;13.38;6.32;;;;;;;;;;2345867;57;21069;-77
2022/08/26 03:37:28;;;;;;;9.98;6.57;;;;;;;;;;2347098;57;21098;-78
2022/08/26 03:39:55;;;;;;;12.37;6.57;;;;;;;;;;2347983;57;21096;-77
2022/08/26 03:42:22;;;;;;;13.13;6.78;;;;;;;;;;2347891;57;21603;-78
2022/08/26 03:44:50;;;;;;;12.70;7.37;;;;;;;;;;2346673;57;21093;-77
2022/08/26 03:47:17;;;;;;;12.82;6.80;;;;;;;;;;2347149;57;21057;-77
2022/08/26 03:49:44;;;;;;;15.27;7.57;;;;;;;;;;2348207;57;21102;-78
2022/08/26 03:52:11;;;;;;;14.68;7.30;;;;;;;;;;2346619;57;21142;-79
2022/08/26 03:54:39;;;;;;;11.48;7.03;;;;;;;;;;2346513;57;21022;-78
2022/08/26 03:57:07;;;;;;;13.45;6.90;;;;;;;;;;2347290;57;21050;-79
2022/08/26 03:59:35;;;;;;;15.00;7.97;;;;;;;;;;2347885;57;21053;-78
2022/08/26 04:02:02;;;;;;;10.88;6.93;;;;;;;;;;2424605;53;21112;-78
2022/08/26 04:04:29;;;;;;;11.10;7.15;;;;;;;;;;2398213;53;21050;-77
2022/08/26 04:06:57;;;;;;;9.13;6.12;;;;;;;;;;2344870;57;21125;-77
2022/08/26 04:09:25;;;;;;;15.50;7.57;;;;;;;;;;2399583;53;21038;-76
2022/08/26 04:11:52;;;;;;;12.68;7.55;;;;;;;;;;2346736;57;21045;-77
2022/08/26 04:14:20;;;;;;;9.27;7.10;;;;;;;;;;2345770;57;21560;-79
2022/08/26 04:16:48;;;;;;;8.43;7.05;;;;;;;;;;2347368;57;21046;-77
2022/08/26 04:19:16;;;;;;;14.50;7.25;;;;;;;;;;2353425;53;21054;-78
2022/08/26 04:21:43;;;;;;;13.02;7.75;;;;;;;;;;2401346;53;21041;-78
2022/08/26 04:24:12;;;;;;;17.45;7.32;;;;;;;;;;2347266;57;21069;-79
2022/08/26 04:26:39;;;;;;;15.25;6.95;;;;;;;;;;2386398;53;21042;-78
2022/08/26 04:29:07;;;;;;;11.65;7.22;;;;;;;;;;2346860;57;21117;-77
2022/08/26 04:31:35;;;;;;;12.05;7.30;;;;;;;;;;2398578;53;21133;-77
2022/08/26 04:34:03;;;;;;;14.87;7.82;;;;;;;;;;2346640;57;21034;-77
2022/08/26 04:36:30;;;;;;;12.25;7.20;;;;;;;;;;2345559;57;21069;-78
2022/08/26 04:38:59;;;;;;;12.27;6.95;;;;;;;;;;2347966;53;21124;-78
2022/08/26 04:41:26;;;;;;;12.90;7.50;;;;;;;;;;2346726;57;21507;-78
2022/08/26 04:43:53;;;;;;;12.13;7.62;;;;;;;;;;2346146;56;21122;-78
2022/08/26 04:46:21;;;;;;;13.57;7.32;;;;;;;;;;2346230;57;21046;-78
2022/08/26 04:48:50;;;;;;;13.48;7.40;;;;;;;;;;2347018;57;21030;-78
2022/08/26 04:51:17;;;;;;;10.88;7.03;;;;;;;;;;2346861;57;21057;-77
2022/08/26 04:53:45;;;;;;;14.18;7.40;;;;;;;;;;2385456;52;21105;-78
2022/08/26 04:56:13;;;;;;;13.13;7.95;;;;;;;;;;2354090;53;21101;-78
2022/08/26 04:58:40;;;;;;;11.85;7.00;;;;;;;;;;2398871;53;21073;-78
2022/08/26 05:01:07;;;;;;;11.07;7.55;;;;;;;;;;2348611;53;21033;-78
2022/08/26 05:03:35;;;;;;;15.88;8.05;;;;;;;;;;2350002;53;21061;-77
2022/08/26 05:06:04;;;;;;;15.63;7.47;;;;;;;;;;2345339;57;21149;-78
2022/08/26 05:08:31;;;;;;;12.32;7.78;;;;;;;;;;2346564;57;21130;-78
2022/08/26 05:10:58;;;;;;;14.73;7.35;;;;;;;;;;2346590;57;21084;-78
2022/08/26 05:13:31;;;;;;;12.95;6.78;;;;;;;;;;2346084;57;21093;-78
2022/08/26 05:16:02;;;;;;;10.05;6.87;;;;;;;;;;2345338;57;21093;-78
2022/08/26 05:18:29;;;;;;;12.32;7.35;;;;;;;;;;2386570;53;21037;-81
2022/08/26 05:20:56;;;;;;;11.63;7.07;;;;;;;;;;2346206;57;21105;-78
2022/08/26 05:23:24;;;;;;;14.20;7.50;;;;;;;;;;2345868;57;21046;-78
2022/08/26 05:25:52;;;;;;;16.65;6.68;;;;;;;;;;2539515;53;22173;-78
2022/08/26 05:28:21;;;;;;;10.15;6.75;;;;;;;;;;2345971;57;21380;-78
2022/08/26 05:30:48;;;;;;;14.35;7.85;;;;;;;;;;2346460;57;21120;-78
2022/08/26 05:33:16;;;;;;;10.95;6.97;;;;;;;;;;2347267;57;21092;-78
2022/08/26 05:35:44;;;;;;;11.18;7.25;;;;;;;;;;2346490;57;21148;-78
2022/08/26 05:38:13;;;;;;;14.40;7.28;;;;;;;;;;2347410;57;21100;-78
2022/08/26 05:40:41;;;;;;;16.00;8.60;;;;;;;;;;2346621;57;21285;-77
2022/08/26 05:43:09;;;;;;;15.05;7.68;;;;;;;;;;2344521;57;21029;-77
2022/08/26 05:45:37;;;;;;;15.68;8.15;;;;;;;;;;2346214;57;21383;-78
2022/08/26 05:48:06;;;;;;;13.93;8.88;;;;;;;;;;2350724;53;21135;-77
2022/08/26 05:50:36;;;;;;;16.67;9.70;;;;;;;;;;2346981;57;21034;-78
2022/08/26 05:53:03;;;;;;;17.35;8.63;;;;;;;;;;2347563;53;21045;-78
2022/08/26 05:55:32;;;;;;;15.32;8.68;;;;;;;;;;2346536;57;21061;-77
2022/08/26 05:57:59;;;;;;;12.85;8.80;;;;;;;;;;2346594;57;21038;-78
2022/08/26 06:00:26;;;;;;;12.07;8.07;;;;;;;;;;2345021;57;21089;-77
2022/08/26 06:02:53;;;;;;;14.02;8.60;;;;;;;;;;2346310;57;21542;-78
2022/08/26 06:05:20;;;;;;;13.82;9.32;;;;;;;;;;2346263;57;21116;-77
2022/08/26 06:10:33;;;;;;;14.00;9.02;;;;;;;;;;2346826;57;21473;-78
2022/08/26 06:13:01;;;;;;;14.93;9.48;;;;;;;;;;2346617;57;21145;-78
2022/08/26 06:15:28;;;;;;;18.02;9.57;;;;;;;;;;2375536;53;21032;-78
2022/08/26 06:17:55;;;;;;;24.85;10.15;;;;;;;;;;2346193;57;21611;-78
2022/08/26 06:20:22;;;;;;;13.70;9.93;;;;;;;;;;2346888;57;21101;-78
2022/08/26 06:25:38;;;;;;;11.77;9.13;;;;;;;;;;2346133;57;21528;-78
2022/08/26 06:28:05;;;;;;;8.88;7.43;;;;;;;;;;2346768;55;21030;-78
2022/08/26 06:30:33;;;;;;;12.32;8.65;;;;;;;;;;2538386;52;21034;-78
2022/08/26 06:35:37;;;;;;;14.85;9.88;;;;;;;;;;2403538;53;22114;-80
2022/08/26 06:38:05;;;;;;;19.00;9.68;;;;;;;;;;2348761;53;21632;-80
2022/08/26 06:40:32;;;;;;;17.33;10.38;;;;;;;;;;2539046;53;21045;-78
2022/08/26 06:42:59;;;;;;;13.40;8.98;;;;;;;;;;2362613;56;21043;-78
2022/08/26 06:45:26;;;;;;;15.00;8.95;;;;;;;;;;2374528;56;21181;-78
2022/08/26 06:47:53;;;;;;;14.02;9.55;;;;;;;;;;2374509;56;21046;-77
2022/08/26 06:50:21;;;;;;;15.13;9.25;;;;;;;;;;2453031;52;21177;-78
2022/08/26 06:52:48;;;;;;;14.87;9.77;;;;;;;;;;2374200;56;21643;-77
2022/08/26 06:55:15;;;;;;;16.33;9.68;;;;;;;;;;2407472;52;21062;-78
2022/08/26 06:57:42;;;;;;;13.32;10.15;;;;;;;;;;2482782;52;21536;-76
2022/08/26 07:00:11;;;;;;;17.20;10.38;;;;;;;;;;2304203;58;21113;-77
2022/08/26 07:02:38;;;;;;;13.73;9.88;;;;;;;;;;2303428;58;21082;-77
2022/08/26 07:05:07;;;;;;;13.45;8.77;;;;;;;;;;2302649;58;21600;-77
2022/08/26 07:07:34;;;;;;;15.82;9.45;;;;;;;;;;2302446;58;21066;-77
2022/08/26 07:10:01;;;;;;;13.20;9.10;;;;;;;;;;2302607;58;21121;-78
2022/08/26 07:12:28;;;;;;;16.17;10.63;;;;;;;;;;2302156;58;21050;-77
2022/08/26 07:14:55;;;;;;;14.70;10.85;;;;;;;;;;2300872;58;21162;-78
2022/08/26 07:17:22;;;;;;;12.02;9.18;;;;;;;;;;2538091;54;21352;-78
2022/08/26 07:19:50;;;;;;;13.85;9.80;;;;;;;;;;2301917;58;21046;-77
2022/08/26 07:22:17;;;;;;;14.82;10.20;;;;;;;;;;2300310;58;21102;-77
2022/08/26 07:24:44;;;;;;;16.45;10.82;;;;;;;;;;2301752;58;21070;-77
2022/08/26 07:27:14;;;;;;;14.60;9.65;;;;;;;;;;2301096;58;21058;-78
2022/08/26 07:29:42;;;;;;;18.48;10.98;;;;;;;;;;2301797;58;21079;-77
2022/08/26 07:32:10;;;;;;;15.20;10.63;;;;;;;;;;2302121;58;21102;-77
2022/08/26 07:34:38;;;;;;;17.77;10.52;;;;;;;;;;2299887;58;21134;-77
2022/08/26 07:37:05;;;;;;;15.35;10.27;;;;;;;;;;2538869;54;21117;-77
2022/08/26 07:39:32;;;;;;;13.88;10.23;;;;;;;;;;2300885;58;21134;-79
2022/08/26 07:42:00;;;;;;;18.33;11.65;;;;;;;;;;2301605;58;21046;-78
2022/08/26 07:44:27;;;;;;;12.77;10.60;;;;;;;;;;2301927;58;21075;-78
2022/08/26 07:46:54;;;;;;;15.60;10.75;;;;;;;;;;2300979;58;21106;-78
2022/08/26 07:49:22;;;;;;;16.55;9.73;;;;;;;;;;2301653;58;21134;-77
2022/08/26 07:51:49;;;;;;;16.70;11.35;;;;;;;;;;2300921;58;21134;-78
2022/08/26 07:54:16;;;;;;;14.35;11.07;;;;;;;;;;2300334;58;21126;-78
2022/08/26 07:56:43;;;;;;;13.48;10.40;;;;;;;;;;2299761;58;21070;-76
2022/08/26 07:59:10;;;;;;;16.27;10.73;;;;;;;;;;2300522;58;21653;-77
2022/08/26 08:01:37;;;;;;;15.45;10.88;;;;;;;;;;2300704;58;21138;-78
2022/08/26 08:04:05;;;;;;;18.05;11.12;;;;;;;;;;2300260;58;21047;-78
2022/08/26 08:06:32;;;;;;;16.67;10.25;;;;;;;;;;2537377;54;21121;-79
2022/08/26 08:08:59;;;;;;;14.27;11.10;;;;;;;;;;2300865;58;21190;-77
2022/08/26 08:11:28;;;;;;;16.62;11.70;;;;;;;;;;2300446;58;21067;-77
2022/08/26 08:13:55;;;;;;;13.57;9.82;;;;;;;;;;2300621;58;21062;-78
2022/08/26 08:16:23;;;;;;;16.70;11.68;;;;;;;;;;2299600;58;21130;-77
2022/08/26 08:18:50;;;;;;;22.45;12.25;;;;;;;;;;2300617;58;21050;-77
2022/08/26 08:21:17;;;;;;;18.00;11.18;;;;;;;;;;2301368;58;21134;-78
2022/08/26 08:23:44;;;;;;;20.02;11.12;;;;;;;;;;2538806;54;21592;-77
2022/08/26 08:26:11;;;;;;;16.75;10.65;;;;;;;;;;2300485;58;21208;-77
2022/08/26 08:28:38;;;;;;;18.75;12.10;;;;;;;;;;2301731;58;21066;-77
2022/08/26 08:31:06;;;;;;;15.57;10.93;;;;;;;;;;2301612;58;21046;-77
2022/08/26 08:33:33;;;;;;;20.95;12.57;;;;;;;;;;2298241;58;21240;-77
2022/08/26 08:36:00;;;;;;;21.35;11.15;;;;;;;;;;2300822;58;21031;-77
2022/08/26 08:38:28;;;;;;;16.33;10.93;;;;;;;;;;2538691;54;22153;-77
2022/08/26 08:40:55;;;;;;;20.55;12.05;;;;;;;;;;2539095;54;21051;-77
2022/08/26 08:43:29;;;;;;;20.35;13.57;;;;;;;;;;2301420;58;21125;-79
2022/08/26 08:45:58;;;;;;;18.30;10.80;;;;;;;;;;2301554;58;21107;-77
2022/08/26 08:48:26;;;;;;;14.77;10.90;;;;;;;;;;2538361;54;21666;-77
2022/08/26 08:50:54;;;;;;;20.30;11.70;;;;;;;;;;2299426;58;21058;-78
2022/08/26 08:53:24;;;;;;;20.20;10.85;;;;;;;;;;2539042;54;21617;-78
2022/08/26 08:56:02;;;;;;;15.13;10.18;;;;;;;;;;2538692;54;21042;-79
2022/08/26 08:58:34;;;;;;;24.00;11.52;;;;;;;;;;2538950;54;21042;-79
2022/08/26 09:01:04;;;;;;;12.60;9.87;;;;;;;;;;2538830;54;21544;-78
2022/08/26 09:03:36;;;;;;;15.40;9.73;;;;;;;;;;2301467;58;21121;-77
2022/08/26 09:06:03;;;;;;;22.23;10.40;;;;;;;;;;2301699;58;21038;-77
2022/08/26 09:08:33;;;;;;;16.80;9.77;;;;;;;;;;2299708;58;21042;-77
2022/08/26 09:11:03;;;;;;;14.43;10.27;;;;;;;;;;2301691;58;21122;-78
2022/08/26 09:13:30;;;;;;;14.82;9.48;;;;;;;;;;2301459;58;22194;-77
2022/08/26 09:16:01;;;;;;;16.75;11.25;;;;;;;;;;2300869;58;21059;-78
2022/08/26 09:18:35;;;;;;;14.02;9.25;;;;;;;;;;2301751;58;21050;-79
2022/08/26 09:21:04;;;;;;;12.93;8.32;;;;;;;;;;2301640;58;21146;-77
2022/08/26 09:23:31;;;;;;;10.68;8.82;;;;;;;;;;2538920;54;21560;-79
2022/08/26 09:26:00;;;;;;;14.98;9.85;;;;;;;;;;2300635;58;21039;-77
2022/08/26 09:28:28;;;;;;;14.05;9.68;;;;;;;;;;2301186;58;21141;-77
2022/08/26 09:31:06;;;;;;;15.82;10.05;;;;;;;;;;2301666;58;21121;-78
2022/08/26 09:33:34;;;;;;;15.18;9.68;;;;;;;;;;2301775;58;21130;-79
2022/08/26 09:36:17;;;;;;;14.30;9.93;;;;;;;;;;2301285;58;21315;-77
2022/08/26 09:38:44;;;;;;;16.77;9.33;;;;;;;;;;2302152;58;21137;-77
2022/08/26 09:41:21;;;;;;;17.27;9.20;;;;;;;;;;2300620;58;21544;-78
2022/08/26 09:44:07;;;;;;;13.80;8.70;;;;;;;;;;2301642;58;21062;-78
2022/08/26 09:46:35;;;;;;;19.45;7.93;;;;;;;;;;2301214;58;21062;-77
2022/08/26 09:49:20;;;;;;;11.80;7.40;;;;;;;;;;2301635;58;21055;-77
2022/08/26 09:51:47;;;;;;;14.93;9.23;;;;;;;;;;2301487;58;21568;-77
2022/08/26 09:54:25;;;;;;;15.15;8.13;;;;;;;;;;2301291;58;21106;-77
2022/08/26 09:56:53;;;;;;;15.23;8.35;;;;;;;;;;2301232;58;21114;-78
2022/08/26 09:59:30;;;;;;;16.60;7.82;;;;;;;;;;2300851;58;21545;-77
2022/08/26 10:02:15;;;;;;;20.25;7.90;;;;;;;;;;2538851;54;21703;-77
2022/08/26 10:04:49;;;;;;;14.48;7.93;;;;;;;;;;2300228;58;21043;-77
2022/08/26 10:07:33;;;;;;;11.82;7.25;;;;;;;;;;2301227;58;21065;-78
2022/08/26 10:10:02;;;;;;;17.90;7.18;;;;;;;;;;2301330;58;21130;-78
2022/08/26 10:12:33;;;;;;;11.82;6.85;;;;;;;;;;2300008;58;21083;-77
2022/08/26 10:15:03;;;;;;;13.68;7.47;;;;;;;;;;2538685;54;21134;-77
2022/08/26 10:17:32;;;;;;;15.43;7.72;;;;;;;;;;2301234;58;21565;-79
2022/08/26 10:20:04;;;;;;;12.70;6.82;;;;;;;;;;2301743;58;21601;-78
2022/08/26 10:22:34;;;;;;;14.10;6.78;;;;;;;;;;2301529;58;21122;-78
2022/08/26 10:25:05;;;;;;;12.00;7.20;;;;;;;;;;2538894;54;21522;-77
2022/08/26 10:27:39;;;;;;;17.00;7.50;;;;;;;;;;2301030;58;21138;-78
2022/08/26 10:30:09;;;;;;;14.65;7.60;;;;;;;;;;2299605;58;21054;-78
2022/08/26 10:32:38;;;;;;;12.23;7.35;;;;;;;;;;2301461;58;21537;-77
2022/08/26 10:35:06;;;;;;;16.90;7.87;;;;;;;;;;2301431;58;21537;-78
2022/08/26 10:37:36;;;;;;;13.45;6.70;;;;;;;;;;2538725;54;21083;-77
2022/08/26 10:40:06;;;;;;;14.77;7.55;;;;;;;;;;2301572;58;21046;-78
2022/08/26 10:42:36;;;;;;;14.05;7.68;;;;;;;;;;2301488;58;21110;-78
2022/08/26 10:45:07;;;;;;;10.73;7.50;;;;;;;;;;2538996;54;21039;-78
2022/08/26 10:47:38;;;;;;;13.27;7.60;;;;;;;;;;2299039;58;21683;-79
2022/08/26 10:50:05;;;;;;;15.45;7.57;;;;;;;;;;2301357;58;21576;-78
2022/08/26 10:52:36;;;;;;;14.30;7.00;;;;;;;;;;2301642;58;21549;-79
2022/08/26 10:55:07;;;;;;;15.32;8.27;;;;;;;;;;2300953;58;21075;-78
2022/08/26 10:57:40;;;;;;;12.65;7.53;;;;;;;;;;2538517;54;21070;-77
2022/08/26 11:03:02;;;;;;;14.38;6.37;;;;;;;;;;2301465;58;20998;-78
2022/08/26 11:05:29;;;;;;;14.30;7.32;;;;;;;;;;2300559;58;21068;-77
2022/08/26 11:08:28;;;;;;;10.75;6.93;;;;;;;;;;2301199;58;21209;-78
2022/08/26 11:10:57;;;;;;;15.57;6.55;;;;;;;;;;2538458;54;21063;-77
2022/08/26 11:13:43;;;;;;;11.32;7.47;;;;;;;;;;2301527;58;21581;-77
2022/08/26 11:16:10;;;;;;;19.55;6.22;;;;;;;;;;2301119;58;22208;-78
2022/08/26 11:18:38;;;;;;;12.20;6.65;;;;;;;;;;2301450;58;21122;-79
2022/08/26 11:21:42;;;;;;;18.70;7.70;;;;;;;;;;2300729;58;21585;-78
2022/08/26 11:24:09;;;;;;;10.48;6.28;;;;;;;;;;2301942;58;21054;-78
2022/08/26 11:26:37;;;;;;;12.23;6.75;;;;;;;;;;2538108;54;21043;-78
2022/08/26 11:29:04;;;;;;;13.75;6.82;;;;;;;;;;2301267;58;21066;-77
2022/08/26 11:31:53;;;;;;;12.88;7.07;;;;;;;;;;2301420;58;21065;-78
2022/08/26 11:34:50;;;;;;;14.35;6.30;;;;;;;;;;2301633;58;21055;-79
2022/08/26 11:37:18;;;;;;;9.82;6.12;;;;;;;;;;2300842;58;21093;-79
2022/08/26 11:39:49;;;;;;;11.27;6.03;;;;;;;;;;2538993;54;21153;-78
2022/08/26 11:42:19;;;;;;;11.85;6.18;;;;;;;;;;2301563;58;21149;-80
2022/08/26 11:44:46;;;;;;;11.00;5.95;;;;;;;;;;2538621;54;21553;-80
2022/08/26 11:47:15;;;;;;;12.68;6.80;;;;;;;;;;2301241;58;21050;-77
2022/08/26 11:49:42;;;;;;;9.98;6.07;;;;;;;;;;2301790;58;21365;-78
2022/08/26 11:52:14;;;;;;;12.57;6.97;;;;;;;;;;2301240;58;21043;-78
2022/08/26 11:54:58;;;;;;;13.07;6.53;;;;;;;;;;2302070;58;21126;-78
2022/08/26 11:57:26;;;;;;;12.65;6.03;;;;;;;;;;2538199;54;21137;-78
2022/08/26 11:59:53;;;;;;;12.20;6.78;;;;;;;;;;2301809;58;21110;-78
2022/08/26 12:02:20;;;;;;;8.45;5.78;;;;;;;;;;2300188;58;21110;-78
2022/08/26 12:04:48;;;;;;;14.38;6.05;;;;;;;;;;2538913;54;21053;-78
2022/08/26 12:07:16;;;;;;;10.52;6.10;;;;;;;;;;2299582;58;21149;-79
2022/08/26 12:09:52;;;;;;;16.90;6.35;;;;;;;;;;2301292;58;21073;-79
2022/08/26 12:12:22;;;;;;;14.75;6.28;;;;;;;;;;2539144;54;21182;-78
2022/08/26 12:15:04;;;;;;;14.87;6.60;;;;;;;;;;2301448;58;21185;-78
2022/08/26 12:17:31;;;;;;;15.90;6.37;;;;;;;;;;2301494;58;21613;-79
2022/08/26 12:19:58;;;;;;;9.40;5.78;;;;;;;;;;2301869;58;21636;-77
2022/08/26 12:22:26;;;;;;;12.85;5.82;;;;;;;;;;2301180;58;21177;-78
2022/08/26 12:24:55;;;;;;;14.13;5.87;;;;;;;;;;2301367;58;21058;-78
2022/08/26 12:27:24;;;;;;;13.32;5.65;;;;;;;;;;2301219;58;21146;-78
2022/08/26 12:30:01;;;;;;;14.40;5.72;;;;;;;;;;2301840;58;21627;-78
2022/08/26 12:32:30;;;;;;;11.18;5.85;;;;;;;;;;2538903;54;21529;-79
2022/08/26 12:34:57;;;;;;;11.68;5.53;;;;;;;;;;2538365;54;21110;-80
2022/08/26 12:37:26;;;;;;;13.50;6.97;;;;;;;;;;2301341;58;21050;-78
2022/08/26 12:39:53;;;;;;;12.10;5.90;;;;;;;;;;2301492;58;21555;-78
2022/08/26 12:42:39;;;;;;;9.90;5.75;;;;;;;;;;2301554;58;21106;-78
2022/08/26 12:45:08;;;;;;;11.43;5.53;;;;;;;;;;2300661;58;21066;-78
2022/08/26 12:47:37;;;;;;;11.15;6.28;;;;;;;;;;2301339;58;21532;-78
2022/08/26 12:50:05;;;;;;;12.37;6.35;;;;;;;;;;2301725;58;21057;-78
2022/08/26 12:52:33;;;;;;;13.55;6.60;;;;;;;;;;2301204;58;21564;-78
2022/08/26 12:55:02;;;;;;;10.63;5.45;;;;;;;;;;2301510;58;21111;-80
2022/08/26 12:57:30;;;;;;;9.55;5.68;;;;;;;;;;2382075;54;21143;-79
2022/08/26 13:00:15;;;;;;;11.82;5.70;;;;;;;;;;2483395;54;21134;-78
2022/08/26 13:02:42;;;;;;;12.70;5.30;;;;;;;;;;2313122;57;21038;-78
2022/08/26 13:05:19;;;;;;;10.52;6.03;;;;;;;;;;2329195;57;21124;-78
2022/08/26 13:08:07;;;;;;;10.77;5.95;;;;;;;;;;2329700;57;21703;-78
2022/08/26 13:10:35;;;;;;;14.85;5.93;;;;;;;;;;2573383;54;21089;-78
2022/08/26 13:13:02;;;;;;;9.63;5.05;;;;;;;;;;2489842;53;21065;-78
2022/08/26 13:15:29;;;;;;;8.25;5.37;;;;;;;;;;2329314;57;21193;-78
2022/08/26 13:17:56;;;;;;;10.68;5.53;;;;;;;;;;2329489;57;21558;-77
2022/08/26 13:20:23;;;;;;;10.18;5.55;;;;;;;;;;2329315;57;21618;-78
2022/08/26 13:22:51;;;;;;;9.45;5.28;;;;;;;;;;2329373;57;21195;-78
2022/08/26 13:25:18;;;;;;;12.35;5.45;;;;;;;;;;2327219;57;21088;-80
2022/08/26 13:27:45;;;;;;;15.27;5.53;;;;;;;;;;2328596;57;21152;-79
2022/08/26 13:30:13;;;;;;;15.13;5.57;;;;;;;;;;2328213;57;21045;-79
2022/08/26 13:32:40;;;;;;;10.00;5.40;;;;;;;;;;2353081;54;21101;-80
2022/08/26 13:35:08;;;;;;;10.65;5.70;;;;;;;;;;2329985;57;21136;-80
2022/08/26 13:37:35;;;;;;;11.52;4.70;;;;;;;;;;2439383;54;21043;-79
2022/08/26 13:40:03;;;;;;;13.85;5.60;;;;;;;;;;2324777;57;21089;-80
2022/08/26 13:42:30;;;;;;;9.07;5.18;;;;;;;;;;2326612;57;21101;-80
2022/08/26 13:44:58;;;;;;;9.98;5.32;;;;;;;;;;2328439;57;21690;-79
2022/08/26 13:47:26;;;;;;;9.63;5.30;;;;;;;;;;2328371;57;21084;-80
2022/08/26 13:49:53;;;;;;;15.45;5.68;;;;;;;;;;2338109;54;21045;-80
2022/08/26 13:52:20;;;;;;;11.12;5.32;;;;;;;;;;2329438;57;21119;-80
2022/08/26 13:54:48;;;;;;;12.70;4.97;;;;;;;;;;2329137;57;22517;-80
2022/08/26 13:57:15;;;;;;;15.85;5.32;;;;;;;;;;2326723;57;21081;-79
2022/08/26 13:59:42;;;;;;;9.23;5.20;;;;;;;;;;2328652;57;21399;-78
2022/08/26 14:02:09;;;;;;;8.57;5.50;;;;;;;;;;2455063;54;21080;-78
2022/08/26 14:04:36;;;;;;;8.55;4.95;;;;;;;;;;2374583;54;21124;-79
2022/08/26 14:07:03;;;;;;;13.25;5.47;;;;;;;;;;2328616;57;21219;-78
2022/08/26 14:09:30;;;;;;;9.32;5.22;;;;;;;;;;2334333;54;21069;-78
2022/08/26 14:11:57;;;;;;;18.00;5.32;;;;;;;;;;2327724;57;21051;-78
2022/08/26 14:14:24;;;;;;;12.57;5.70;;;;;;;;;;2329073;57;21132;-78
2022/08/26 14:16:51;;;;;;;9.52;4.97;;;;;;;;;;2329434;57;21128;-78
2022/08/26 14:19:18;;;;;;;14.80;5.40;;;;;;;;;;2329762;57;21069;-78
2022/08/26 14:21:45;;;;;;;10.80;5.93;;;;;;;;;;2329072;57;21041;-77
2022/08/26 14:24:12;;;;;;;7.72;5.57;;;;;;;;;;2330121;57;21145;-78
2022/08/26 14:26:40;;;;;;;13.30;5.32;;;;;;;;;;2328909;57;21128;-78
2022/08/26 14:29:07;;;;;;;13.23;6.18;;;;;;;;;;2329585;57;21113;-78
2022/08/26 14:31:35;;;;;;;11.60;6.28;;;;;;;;;;2330200;57;21100;-78
2022/08/26 14:34:03;;;;;;;10.98;6.47;;;;;;;;;;2330471;57;21132;-79
2022/08/26 14:36:31;;;;;;;13.38;6.47;;;;;;;;;;2329549;57;21149;-78
2022/08/26 14:39:00;;;;;;;15.32;6.50;;;;;;;;;;2329425;57;21141;-78
2022/08/26 14:41:27;;;;;;;11.80;6.43;;;;;;;;;;2330517;57;21053;-78
2022/08/26 14:43:58;;;;;;;23.90;6.80;;;;;;;;;;2330913;57;21113;-79
2022/08/26 14:46:27;;;;;;;14.93;7.12;;;;;;;;;;2329338;57;21124;-79
2022/08/26 14:48:54;;;;;;;15.63;7.70;;;;;;;;;;2330438;57;21137;-79
2022/08/26 14:51:22;;;;;;;17.65;8.77;;;;;;;;;;2329954;57;21049;-79
2022/08/26 14:56:37;;;;;;;15.82;9.55;;;;;;;;;;2329820;57;21479;-79
2022/08/26 14:59:04;;;;;;;38.72;9.60;;;;;;;;;;2329922;57;21061;-77
2022/08/26 15:01:31;;;;;;;40.08;8.85;;;;;;;;;;2329834;57;21113;-77